Time;durP1;ratioP1;P1;durP2;ratioP2;P2;SDS_P1;SDS_P2;PMS_P1;PMS_P2;Temp;Humidity;BMP_temperature;BMP_pressure;BME280_temperature;BME280_humidity;BME280_pressure;Samples;Min_cycle;Max_cycle;Signal;HPM_P1;HPM_P2
2022/07/18 00:01:56;;;;;;;5.10;2.25;;;;;;;;;;5092132;28;20366;-65
2022/07/18 00:04:22;;;;;;;6.45;2.10;;;;;;;;;;5091939;28;20027;-65
2022/07/18 00:06:48;;;;;;;4.97;2.00;;;;;;;;;;5091872;28;20028;-65
2022/07/18 00:09:14;;;;;;;6.70;2.72;;;;;;;;;;5091658;28;20107;-65
2022/07/18 00:11:40;;;;;;;5.07;1.88;;;;;;;;;;5091914;28;20097;-65
2022/07/18 00:14:05;;;;;;;4.45;1.73;;;;;;;;;;5091853;28;20077;-65
2022/07/18 00:16:31;;;;;;;3.38;1.55;;;;;;;;;;5088874;28;20033;-65
2022/07/18 00:18:58;;;;;;;4.00;1.60;;;;;;;;;;5091884;28;20031;-65
2022/07/18 00:21:24;;;;;;;5.85;1.75;;;;;;;;;;5091880;28;20031;-64
2022/07/18 00:23:50;;;;;;;5.32;1.75;;;;;;;;;;5091496;28;20085;-64
2022/07/18 00:26:16;;;;;;;5.20;1.60;;;;;;;;;;5091679;28;20028;-65
2022/07/18 00:28:41;;;;;;;4.90;2.13;;;;;;;;;;5091607;28;20126;-65
2022/07/18 00:31:07;;;;;;;5.60;1.70;;;;;;;;;;5091925;28;20020;-65
2022/07/18 00:33:33;;;;;;;5.10;1.50;;;;;;;;;;5091629;28;20470;-65
2022/07/18 00:35:58;;;;;;;8.52;2.50;;;;;;;;;;5091533;28;20111;-65
2022/07/18 00:38:24;;;;;;;7.63;2.17;;;;;;;;;;5091452;28;20058;-65
2022/07/18 00:40:50;;;;;;;8.10;1.85;;;;;;;;;;5091547;28;20119;-65
2022/07/18 00:43:15;;;;;;;5.05;1.70;;;;;;;;;;5091476;28;20473;-65
2022/07/18 00:45:45;;;;;;;3.60;2.13;;;;;;;;;;5090993;28;20036;-65
2022/07/18 00:48:11;;;;;;;4.55;1.48;;;;;;;;;;5091417;28;20099;-65
2022/07/18 00:50:37;;;;;;;4.05;1.52;;;;;;;;;;5091430;28;20099;-65
2022/07/18 00:53:04;;;;;;;5.47;1.70;;;;;;;;;;5091175;28;20111;-65
2022/07/18 00:55:30;;;;;;;9.82;2.00;;;;;;;;;;5091442;28;20041;-64
2022/07/18 00:57:56;;;;;;;4.32;1.80;;;;;;;;;;5091424;28;20028;-65
2022/07/18 01:03:06;;;;;;;4.28;1.90;;;;;;;;;;5092134;28;20031;-65
2022/07/18 01:05:31;;;;;;;6.35;1.70;;;;;;;;;;5095196;28;20028;-64
2022/07/18 01:07:57;;;;;;;4.47;1.98;;;;;;;;;;5095165;28;20393;-65
2022/07/18 01:10:22;;;;;;;5.82;1.52;;;;;;;;;;5095291;28;20031;-65
2022/07/18 01:12:48;;;;;;;4.95;1.80;;;;;;;;;;5095363;28;20028;-65
2022/07/18 01:15:13;;;;;;;8.20;1.60;;;;;;;;;;5095312;28;20028;-65
2022/07/18 01:17:39;;;;;;;4.55;1.60;;;;;;;;;;5095147;28;20187;-64
2022/07/18 01:20:06;;;;;;;3.83;1.80;;;;;;;;;;5077003;28;20374;-65
2022/07/18 01:22:32;;;;;;;5.53;1.98;;;;;;;;;;5094932;28;20069;-65
2022/07/18 01:24:57;;;;;;;3.03;1.50;;;;;;;;;;5095161;28;20028;-64
2022/07/18 01:27:23;;;;;;;4.10;1.60;;;;;;;;;;5094907;28;20043;-64
2022/07/18 01:29:51;;;;;;;5.43;1.70;;;;;;;;;;5094965;28;20024;-65
2022/07/18 01:32:17;;;;;;;9.25;2.47;;;;;;;;;;5094957;28;20024;-65
2022/07/18 01:34:45;;;;;;;4.43;1.73;;;;;;;;;;5094735;28;20527;-65
2022/07/18 01:37:10;;;;;;;7.18;2.33;;;;;;;;;;5094516;28;20077;-65
2022/07/18 01:39:36;;;;;;;3.78;1.88;;;;;;;;;;5094642;28;20020;-65
2022/07/18 01:42:04;;;;;;;3.95;1.88;;;;;;;;;;5094742;28;20542;-65
2022/07/18 01:44:31;;;;;;;7.45;1.73;;;;;;;;;;5094562;28;20032;-65
2022/07/18 01:46:57;;;;;;;4.97;1.83;;;;;;;;;;5094629;28;20144;-65
2022/07/18 01:49:23;;;;;;;5.60;1.98;;;;;;;;;;5094472;28;20534;-65
2022/07/18 01:51:52;;;;;;;5.68;2.30;;;;;;;;;;5094466;28;20016;-65
2022/07/18 01:54:21;;;;;;;6.13;1.90;;;;;;;;;;5094368;28;20476;-65
2022/07/18 01:56:47;;;;;;;7.45;2.55;;;;;;;;;;5094495;28;20028;-65
2022/07/18 01:59:13;;;;;;;4.85;1.80;;;;;;;;;;5094395;28;20051;-65
2022/07/18 02:01:39;;;;;;;5.38;1.98;;;;;;;;;;5094247;28;20035;-65
2022/07/18 02:04:05;;;;;;;5.07;1.75;;;;;;;;;;5094318;28;20066;-65
2022/07/18 02:06:30;;;;;;;5.13;2.10;;;;;;;;;;5093958;28;20508;-65
2022/07/18 02:08:56;;;;;;;4.57;1.88;;;;;;;;;;5094217;28;20016;-65
2022/07/18 02:11:21;;;;;;;3.05;1.85;;;;;;;;;;5093999;28;20020;-65
2022/07/18 02:13:47;;;;;;;4.57;2.30;;;;;;;;;;5094073;28;20028;-65
2022/07/18 02:16:13;;;;;;;5.13;2.15;;;;;;;;;;5093146;28;20024;-65
2022/07/18 02:18:38;;;;;;;3.05;1.92;;;;;;;;;;5085760;28;20031;-65
2022/07/18 02:21:04;;;;;;;3.63;1.80;;;;;;;;;;5073674;28;20028;-65
2022/07/18 02:23:30;;;;;;;4.38;1.90;;;;;;;;;;5073544;28;20090;-65
2022/07/18 02:25:55;;;;;;;5.22;2.22;;;;;;;;;;5073580;28;20024;-65
2022/07/18 02:28:21;;;;;;;4.03;1.90;;;;;;;;;;5073695;28;20025;-65
2022/07/18 02:30:48;;;;;;;4.47;2.08;;;;;;;;;;5073538;28;20017;-65
2022/07/18 02:33:14;;;;;;;4.18;2.00;;;;;;;;;;5073592;28;20021;-65
2022/07/18 02:35:40;;;;;;;4.95;2.22;;;;;;;;;;5073122;28;20105;-65
2022/07/18 02:38:06;;;;;;;5.15;2.10;;;;;;;;;;5073349;28;20021;-65
2022/07/18 02:40:31;;;;;;;10.60;2.30;;;;;;;;;;5073622;28;20113;-65
2022/07/18 02:42:57;;;;;;;6.00;2.20;;;;;;;;;;5073355;28;20496;-65
2022/07/18 02:45:23;;;;;;;10.15;2.03;;;;;;;;;;5072759;28;20040;-65
2022/07/18 02:47:48;;;;;;;6.70;2.15;;;;;;;;;;5073249;28;20039;-65
2022/07/18 02:50:14;;;;;;;4.38;2.10;;;;;;;;;;5072772;28;20020;-65
2022/07/18 02:52:40;;;;;;;3.53;1.95;;;;;;;;;;5073224;28;20285;-64
2022/07/18 02:55:07;;;;;;;7.38;2.30;;;;;;;;;;5072879;28;20033;-65
2022/07/18 02:57:32;;;;;;;7.00;2.45;;;;;;;;;;5073321;28;20029;-65
2022/07/18 02:59:58;;;;;;;5.65;2.03;;;;;;;;;;5073043;28;20029;-65
2022/07/18 03:02:24;;;;;;;5.32;2.20;;;;;;;;;;5072910;28;20082;-65
2022/07/18 03:04:50;;;;;;;8.40;4.05;;;;;;;;;;5072635;28;20036;-65
2022/07/18 03:07:15;;;;;;;5.80;2.83;;;;;;;;;;5072845;28;20029;-65
2022/07/18 03:09:41;;;;;;;6.90;2.80;;;;;;;;;;5072802;28;20031;-65
2022/07/18 03:12:07;;;;;;;6.63;2.25;;;;;;;;;;5072730;28;20066;-65
2022/07/18 03:14:33;;;;;;;6.72;2.28;;;;;;;;;;5072641;28;20081;-65
2022/07/18 03:16:58;;;;;;;3.55;2.00;;;;;;;;;;5072670;28;20116;-65
2022/07/18 03:19:24;;;;;;;8.45;2.17;;;;;;;;;;5072255;28;20035;-65
2022/07/18 03:21:50;;;;;;;4.00;2.35;;;;;;;;;;5072431;28;20064;-65
2022/07/18 03:24:16;;;;;;;9.02;2.17;;;;;;;;;;5072310;28;20142;-65
2022/07/18 03:26:42;;;;;;;4.45;2.13;;;;;;;;;;5072291;28;20093;-65
2022/07/18 03:29:08;;;;;;;9.45;2.50;;;;;;;;;;5072664;28;20029;-65
2022/07/18 03:31:33;;;;;;;8.27;2.33;;;;;;;;;;5072288;28;20354;-65
2022/07/18 03:33:59;;;;;;;3.42;1.80;;;;;;;;;;5072188;28;20024;-64
2022/07/18 03:36:25;;;;;;;5.97;2.20;;;;;;;;;;5072256;28;20035;-65
2022/07/18 03:38:50;;;;;;;7.18;2.50;;;;;;;;;;5072110;28;20036;-65
2022/07/18 03:41:16;;;;;;;5.95;2.47;;;;;;;;;;5072285;28;20083;-65
2022/07/18 03:43:41;;;;;;;6.25;2.25;;;;;;;;;;5071724;28;20029;-65
2022/07/18 03:46:07;;;;;;;5.82;2.30;;;;;;;;;;5071862;28;20098;-65
2022/07/18 03:48:33;;;;;;;4.53;2.08;;;;;;;;;;5071840;28;20020;-65
2022/07/18 03:51:00;;;;;;;3.40;2.10;;;;;;;;;;5072025;28;20032;-65
2022/07/18 03:53:26;;;;;;;8.38;2.10;;;;;;;;;;5071825;28;20056;-65
2022/07/18 03:55:52;;;;;;;5.88;2.20;;;;;;;;;;5071789;28;20457;-65
2022/07/18 03:58:17;;;;;;;4.78;2.30;;;;;;;;;;5071845;28;20111;-64
2022/07/18 04:00:43;;;;;;;6.00;2.30;;;;;;;;;;5071931;28;20100;-65
2022/07/18 04:03:09;;;;;;;4.85;2.33;;;;;;;;;;5071560;28;20104;-65
2022/07/18 04:05:34;;;;;;;7.38;2.30;;;;;;;;;;5071396;28;20032;-65
2022/07/18 04:08:00;;;;;;;5.72;2.65;;;;;;;;;;5071874;28;20066;-65
2022/07/18 04:10:25;;;;;;;7.75;2.53;;;;;;;;;;5071505;28;20389;-65
2022/07/18 04:12:53;;;;;;;11.20;2.72;;;;;;;;;;5071682;28;20056;-65
2022/07/18 04:15:20;;;;;;;6.60;2.50;;;;;;;;;;5071277;28;20017;-65
2022/07/18 04:17:46;;;;;;;8.43;2.50;;;;;;;;;;5071910;28;20028;-65
2022/07/18 04:20:13;;;;;;;7.15;2.53;;;;;;;;;;5071618;28;20432;-65
2022/07/18 04:22:56;;;;;;;9.38;2.17;;;;;;;;;;5071486;28;20016;-65
2022/07/18 04:25:28;;;;;;;7.45;2.08;;;;;;;;;;5071337;28;20390;-65
2022/07/18 04:27:54;;;;;;;8.93;2.47;;;;;;;;;;5071535;28;20029;-65
2022/07/18 04:30:22;;;;;;;5.85;2.00;;;;;;;;;;5071238;28;20024;-65
2022/07/18 04:32:48;;;;;;;5.07;2.30;;;;;;;;;;5071369;28;20016;-65
2022/07/18 04:35:13;;;;;;;5.80;3.00;;;;;;;;;;5071444;28;20025;-65
2022/07/18 04:37:39;;;;;;;4.22;2.20;;;;;;;;;;5071199;28;20032;-65
2022/07/18 04:40:07;;;;;;;3.83;2.00;;;;;;;;;;5071203;28;20033;-65
2022/07/18 04:42:33;;;;;;;5.32;2.22;;;;;;;;;;5071284;28;20103;-65
2022/07/18 04:44:59;;;;;;;5.32;1.80;;;;;;;;;;5070836;28;20048;-66
2022/07/18 04:47:26;;;;;;;6.72;2.10;;;;;;;;;;5071125;28;20035;-63
2022/07/18 04:49:52;;;;;;;4.85;2.17;;;;;;;;;;5071228;28;20024;-64
2022/07/18 04:52:17;;;;;;;5.85;2.30;;;;;;;;;;5071325;28;20321;-66
2022/07/18 04:54:43;;;;;;;4.35;2.00;;;;;;;;;;5071240;28;20024;-66
2022/07/18 04:57:11;;;;;;;5.28;2.38;;;;;;;;;;5071273;28;20445;-64
2022/07/18 04:59:37;;;;;;;4.47;2.00;;;;;;;;;;5071145;28;20035;-64
2022/07/18 05:02:02;;;;;;;8.13;2.40;;;;;;;;;;5071051;28;20052;-64
2022/07/18 05:04:28;;;;;;;4.40;2.15;;;;;;;;;;5071162;28;20052;-64
2022/07/18 05:06:54;;;;;;;10.15;2.30;;;;;;;;;;5070938;28;20416;-65
2022/07/18 05:09:19;;;;;;;8.38;2.15;;;;;;;;;;5070971;28;20036;-64
2022/07/18 05:11:45;;;;;;;4.82;2.00;;;;;;;;;;5070999;28;20036;-64
2022/07/18 05:14:10;;;;;;;7.95;2.80;;;;;;;;;;5071087;28;20095;-64
2022/07/18 05:16:36;;;;;;;6.07;2.55;;;;;;;;;;5071007;28;20329;-64
2022/07/18 05:19:02;;;;;;;7.57;2.33;;;;;;;;;;5070947;28;20028;-64
2022/07/18 05:21:27;;;;;;;4.65;2.05;;;;;;;;;;5070741;28;20481;-64
2022/07/18 05:23:53;;;;;;;6.80;2.08;;;;;;;;;;5071064;28;20037;-64
2022/07/18 05:26:18;;;;;;;4.90;1.88;;;;;;;;;;5070897;28;20485;-64
2022/07/18 05:28:44;;;;;;;6.60;2.13;;;;;;;;;;5070750;28;20380;-64
2022/07/18 05:31:09;;;;;;;5.70;1.90;;;;;;;;;;5070757;28;20517;-64
2022/07/18 05:33:35;;;;;;;3.50;1.80;;;;;;;;;;5070689;28;20039;-64
2022/07/18 05:36:00;;;;;;;5.88;1.83;;;;;;;;;;5071068;28;20044;-64
2022/07/18 05:38:26;;;;;;;6.10;2.00;;;;;;;;;;5071063;28;20021;-64
2022/07/18 05:40:51;;;;;;;4.15;1.80;;;;;;;;;;5070672;28;20111;-64
2022/07/18 05:43:17;;;;;;;6.70;2.10;;;;;;;;;;5070677;28;20025;-64
2022/07/18 05:45:43;;;;;;;4.00;1.92;;;;;;;;;;5070259;28;20517;-65
2022/07/18 05:48:08;;;;;;;9.52;2.40;;;;;;;;;;5070551;28;20058;-64
2022/07/18 05:50:34;;;;;;;9.93;2.30;;;;;;;;;;5071811;28;20158;-64
2022/07/18 05:52:59;;;;;;;9.88;2.50;;;;;;;;;;5074174;28;20415;-64
2022/07/18 05:55:25;;;;;;;4.82;1.77;;;;;;;;;;5074095;28;20561;-64
2022/07/18 05:57:52;;;;;;;4.72;1.77;;;;;;;;;;5073958;28;20068;-64
2022/07/18 06:00:18;;;;;;;6.35;1.65;;;;;;;;;;5073899;28;20052;-64
2022/07/18 06:02:46;;;;;;;4.20;1.73;;;;;;;;;;5074315;28;20427;-64
2022/07/18 06:05:11;;;;;;;4.30;1.85;;;;;;;;;;5074256;28;20414;-64
2022/07/18 06:07:37;;;;;;;4.70;1.60;;;;;;;;;;5073780;28;20032;-64
2022/07/18 06:10:03;;;;;;;4.07;1.80;;;;;;;;;;5074003;28;20027;-64
2022/07/18 06:12:33;;;;;;;10.27;1.88;;;;;;;;;;5073699;28;20107;-64
2022/07/18 06:14:59;;;;;;;4.30;1.90;;;;;;;;;;5073884;28;20107;-64
2022/07/18 06:17:27;;;;;;;3.13;1.80;;;;;;;;;;5073743;28;20035;-64
2022/07/18 06:19:53;;;;;;;7.05;1.90;;;;;;;;;;5074030;28;20402;-64
2022/07/18 06:22:20;;;;;;;3.35;1.40;;;;;;;;;;5073813;28;20031;-64
2022/07/18 06:24:45;;;;;;;3.40;1.80;;;;;;;;;;5073587;28;20452;-64
2022/07/18 06:27:11;;;;;;;5.32;1.65;;;;;;;;;;5073346;28;20116;-64
2022/07/18 06:29:36;;;;;;;5.75;1.83;;;;;;;;;;5073514;28;20136;-64
2022/07/18 06:32:02;;;;;;;5.00;1.70;;;;;;;;;;5073801;28;20020;-64
2022/07/18 06:34:27;;;;;;;7.68;4.40;;;;;;;;;;5073508;28;20436;-64
2022/07/18 06:36:53;;;;;;;4.35;1.80;;;;;;;;;;5073445;28;20031;-64
2022/07/18 06:39:18;;;;;;;9.38;2.53;;;;;;;;;;5073326;28;20025;-64
2022/07/18 06:41:44;;;;;;;5.05;2.20;;;;;;;;;;5073347;28;20028;-64
2022/07/18 06:44:10;;;;;;;4.13;1.75;;;;;;;;;;5072970;28;20032;-64
2022/07/18 06:46:36;;;;;;;6.18;1.98;;;;;;;;;;5073246;28;20024;-64
2022/07/18 06:49:03;;;;;;;3.45;1.65;;;;;;;;;;5073248;28;20165;-64
2022/07/18 06:51:29;;;;;;;8.02;2.15;;;;;;;;;;5073154;28;20032;-64
2022/07/18 06:53:55;;;;;;;4.55;1.95;;;;;;;;;;5073119;28;20434;-64
2022/07/18 06:56:20;;;;;;;6.82;2.10;;;;;;;;;;5073182;28;20422;-64
2022/07/18 06:58:49;;;;;;;5.15;1.80;;;;;;;;;;5072849;28;20024;-65
2022/07/18 07:01:16;;;;;;;2.88;1.67;;;;;;;;;;5073085;28;20438;-63
2022/07/18 07:03:42;;;;;;;3.58;1.70;;;;;;;;;;5082624;28;20159;-64
2022/07/18 07:06:07;;;;;;;4.57;1.90;;;;;;;;;;5093841;28;20020;-64
2022/07/18 07:08:33;;;;;;;4.72;2.40;;;;;;;;;;5094033;28;20465;-63
2022/07/18 07:11:00;;;;;;;3.22;1.80;;;;;;;;;;5093593;28;20020;-63
2022/07/18 07:13:25;;;;;;;6.07;2.35;;;;;;;;;;5074970;28;20035;-63
2022/07/18 07:15:51;;;;;;;5.85;2.10;;;;;;;;;;5073133;28;20024;-63
2022/07/18 07:18:17;;;;;;;4.60;2.22;;;;;;;;;;5073579;28;20438;-63
2022/07/18 07:20:42;;;;;;;4.93;2.20;;;;;;;;;;5079486;28;20023;-63
2022/07/18 07:23:08;;;;;;;10.75;2.63;;;;;;;;;;5093736;28;20024;-63
2022/07/18 07:25:36;;;;;;;4.97;2.15;;;;;;;;;;5093094;28;20027;-64
2022/07/18 07:28:01;;;;;;;3.72;2.25;;;;;;;;;;5092793;28;20191;-64
2022/07/18 07:30:27;;;;;;;6.57;2.40;;;;;;;;;;5093704;28;20062;-63
2022/07/18 07:32:52;;;;;;;4.05;2.50;;;;;;;;;;5093828;28;20051;-63
2022/07/18 07:35:19;;;;;;;5.72;2.30;;;;;;;;;;5093587;28;20032;-63
2022/07/18 07:37:53;;;;;;;6.90;2.40;;;;;;;;;;5093433;28;20032;-63
2022/07/18 07:40:20;;;;;;;4.18;2.17;;;;;;;;;;5093278;28;20024;-63
2022/07/18 07:42:46;;;;;;;5.15;2.47;;;;;;;;;;5075176;28;20112;-63
2022/07/18 07:45:13;;;;;;;5.32;2.50;;;;;;;;;;5093088;28;20051;-63
2022/07/18 07:47:39;;;;;;;5.32;2.35;;;;;;;;;;5093193;28;20137;-63
2022/07/18 07:50:07;;;;;;;6.35;2.38;;;;;;;;;;5093389;28;20028;-63
2022/07/18 07:52:33;;;;;;;5.88;3.58;;;;;;;;;;5093376;28;20061;-63
2022/07/18 07:54:59;;;;;;;10.18;2.80;;;;;;;;;;5092856;28;20024;-63
2022/07/18 07:57:25;;;;;;;7.00;2.60;;;;;;;;;;5093050;28;20059;-64
2022/07/18 07:59:51;;;;;;;6.75;2.90;;;;;;;;;;5093145;28;20059;-63
2022/07/18 08:02:18;;;;;;;5.05;2.58;;;;;;;;;;5074888;28;20024;-64
2022/07/18 08:04:43;;;;;;;8.25;3.00;;;;;;;;;;5093242;28;20028;-64
2022/07/18 08:07:09;;;;;;;5.13;3.10;;;;;;;;;;5093054;28;20032;-63
2022/07/18 08:09:35;;;;;;;7.10;2.65;;;;;;;;;;5093014;28;20405;-63
2022/07/18 08:12:00;;;;;;;4.97;2.50;;;;;;;;;;5093092;28;20124;-63
2022/07/18 08:14:26;;;;;;;6.07;2.60;;;;;;;;;;5092073;28;20035;-63
2022/07/18 08:16:52;;;;;;;5.78;2.95;;;;;;;;;;5092948;28;20103;-64
2022/07/18 08:19:17;;;;;;;5.15;2.50;;;;;;;;;;5092860;28;20016;-63
2022/07/18 08:21:43;;;;;;;7.57;2.70;;;;;;;;;;5092655;28;20036;-63
2022/07/18 08:24:08;;;;;;;4.90;2.60;;;;;;;;;;5092393;28;20099;-64
2022/07/18 08:26:35;;;;;;;5.57;2.42;;;;;;;;;;5092473;28;20032;-64
2022/07/18 08:29:02;;;;;;;5.32;2.85;;;;;;;;;;5092497;28;20024;-64
2022/07/18 08:31:28;;;;;;;8.52;2.60;;;;;;;;;;5092485;28;20031;-64
2022/07/18 08:33:54;;;;;;;9.13;2.50;;;;;;;;;;5092881;28;20028;-64
2022/07/18 08:36:20;;;;;;;5.68;2.50;;;;;;;;;;5092413;28;20385;-64
2022/07/18 08:38:46;;;;;;;5.30;2.70;;;;;;;;;;5092663;28;20099;-64
2022/07/18 08:41:12;;;;;;;4.47;2.60;;;;;;;;;;5092637;28;20473;-64
2022/07/18 08:43:37;;;;;;;7.72;2.92;;;;;;;;;;5092201;28;20124;-64
2022/07/18 08:46:05;;;;;;;5.82;2.60;;;;;;;;;;5092332;28;20048;-63
2022/07/18 08:48:31;;;;;;;5.72;2.45;;;;;;;;;;5092332;28;20103;-64
2022/07/18 08:51:00;;;;;;;5.75;2.80;;;;;;;;;;5092230;28;20058;-64
2022/07/18 08:53:26;;;;;;;6.97;2.58;;;;;;;;;;5092385;28;20397;-64
2022/07/18 08:55:52;;;;;;;4.55;2.60;;;;;;;;;;5092488;28;20046;-64
2022/07/18 08:58:17;;;;;;;5.10;2.50;;;;;;;;;;5092327;28;20477;-64
2022/07/18 09:00:44;;;;;;;5.50;2.28;;;;;;;;;;5092423;28;20457;-64
2022/07/18 09:03:10;;;;;;;6.20;2.30;;;;;;;;;;5092279;28;20527;-64
2022/07/18 09:05:36;;;;;;;4.47;2.58;;;;;;;;;;5092000;28;20123;-64
2022/07/18 09:08:21;;;;;;;4.13;2.33;;;;;;;;;;5092129;28;20493;-65
2022/07/18 09:10:52;;;;;;;5.18;2.72;;;;;;;;;;5092231;28;20047;-64
2022/07/18 09:13:19;;;;;;;5.50;2.58;;;;;;;;;;5092197;28;20449;-64
2022/07/18 09:16:18;;;;;;;5.22;2.78;;;;;;;;;;5092065;28;20040;-64
2022/07/18 09:18:46;;;;;;;6.05;2.70;;;;;;;;;;5010179;28;20069;-64
2022/07/18 09:21:18;;;;;;;6.15;2.38;;;;;;;;;;5010017;28;20034;-64
2022/07/18 09:23:45;;;;;;;4.78;2.53;;;;;;;;;;5009937;28;20620;-65
2022/07/18 09:26:11;;;;;;;4.75;2.40;;;;;;;;;;5013723;28;20080;-65
2022/07/18 09:28:51;;;;;;;5.88;2.80;;;;;;;;;;5013904;28;20042;-64
2022/07/18 09:31:21;;;;;;;6.95;2.90;;;;;;;;;;5013534;28;20034;-64
2022/07/18 09:33:59;;;;;;;;;;;;;;;;;;5014119;28;20030;-64
2022/07/18 09:36:25;;;;;;;4.95;2.40;;;;;;;;;;5013562;28;19913;-64
2022/07/18 09:38:51;;;;;;;7.13;2.90;;;;;;;;;;5013753;28;20062;-64
2022/07/18 09:41:22;;;;;;;4.05;2.65;;;;;;;;;;5013708;28;20076;-64
2022/07/18 09:43:48;;;;;;;4.65;2.50;;;;;;;;;;4993160;28;20472;-64
2022/07/18 09:46:13;;;;;;;7.13;2.75;;;;;;;;;;4993759;28;20082;-64
2022/07/18 09:48:41;;;;;;;4.13;2.63;;;;;;;;;;4993916;28;20495;-64
2022/07/18 09:51:07;;;;;;;5.57;2.60;;;;;;;;;;4993513;28;20073;-64
2022/07/18 09:53:41;;;;;;;7.28;2.45;;;;;;;;;;5009619;28;20389;-64
2022/07/18 09:56:22;;;;;;;4.45;2.70;;;;;;;;;;5075556;28;20424;-64
2022/07/18 09:58:56;;;;;;;6.32;2.65;;;;;;;;;;5075373;28;20092;-64
2022/07/18 10:01:22;;;;;;;5.28;2.60;;;;;;;;;;5075183;28;20366;-64
2022/07/18 10:03:51;;;;;;;7.13;2.47;;;;;;;;;;5074970;28;20028;-63
2022/07/18 10:06:21;;;;;;;4.75;2.70;;;;;;;;;;5074908;28;20020;-64
2022/07/18 10:08:46;;;;;;;;;;;;;;;;;;5075468;28;20020;-64
2022/07/18 10:11:12;;;;;;;4.90;2.30;;;;;;;;;;5074983;28;20388;-64
2022/07/18 10:13:38;;;;;;;4.13;2.42;;;;;;;;;;5075062;28;20032;-64
2022/07/18 10:16:05;;;;;;;3.47;2.20;;;;;;;;;;5074929;28;20424;-64
2022/07/18 10:18:32;;;;;;;3.65;2.08;;;;;;;;;;5074890;28;20044;-64
2022/07/18 10:21:02;;;;;;;3.65;2.13;;;;;;;;;;5074737;28;20074;-64
2022/07/18 10:23:34;;;;;;;4.60;2.72;;;;;;;;;;5074445;28;20477;-64
2022/07/18 10:26:14;;;;;;;6.03;2.92;;;;;;;;;;5074474;28;20116;-64
2022/07/18 10:28:58;;;;;;;5.35;2.50;;;;;;;;;;5074612;28;20028;-64
2022/07/18 10:31:37;;;;;;;6.57;2.35;;;;;;;;;;5074270;28;20035;-64
2022/07/18 10:34:08;;;;;;;5.28;2.40;;;;;;;;;;5074385;28;20028;-64
2022/07/18 10:37:06;;;;;;;3.92;2.30;;;;;;;;;;5073705;28;20133;-64
2022/07/18 10:39:44;;;;;;;5.60;2.42;;;;;;;;;;5067927;28;20033;-64
2022/07/18 10:42:10;;;;;;;4.95;2.58;;;;;;;;;;5074627;28;20055;-64
2022/07/18 10:44:39;;;;;;;5.70;2.60;;;;;;;;;;5074155;28;20478;-64
2022/07/18 10:47:05;;;;;;;5.38;2.45;;;;;;;;;;5073881;28;20052;-65
2022/07/18 10:49:49;;;;;;;5.20;2.67;;;;;;;;;;5073814;28;20036;-65
2022/07/18 10:52:26;;;;;;;6.00;2.40;;;;;;;;;;5074201;28;20028;-65
2022/07/18 10:55:01;;;;;;;5.55;2.53;;;;;;;;;;5074074;28;20055;-64
2022/07/18 10:57:27;;;;;;;5.18;2.50;;;;;;;;;;5073978;28;20086;-65
2022/07/18 11:00:09;;;;;;;4.95;2.63;;;;;;;;;;5074094;28;20469;-65
2022/07/18 11:02:46;;;;;;;10.40;2.80;;;;;;;;;;5073688;28;20024;-65
2022/07/18 11:05:27;;;;;;;4.32;2.35;;;;;;;;;;5074125;28;20024;-64
2022/07/18 11:08:01;;;;;;;7.10;2.72;;;;;;;;;;5073686;28;20488;-65
2022/07/18 11:13:29;;;;;;;4.30;2.63;;;;;;;;;;5073846;28;20108;-64
2022/07/18 11:16:14;;;;;;;5.53;3.20;;;;;;;;;;5073826;28;20116;-64
2022/07/18 11:18:43;;;;;;;6.53;2.40;;;;;;;;;;5079991;28;20073;-64
2022/07/18 11:21:27;;;;;;;6.87;2.77;;;;;;;;;;5093979;28;20465;-65
2022/07/18 11:24:06;;;;;;;5.88;2.40;;;;;;;;;;5093672;28;20331;-65
2022/07/18 11:26:33;;;;;;;7.40;2.70;;;;;;;;;;5093736;28;20038;-65
2022/07/18 11:29:09;;;;;;;5.75;2.83;;;;;;;;;;5093577;28;20473;-65
2022/07/18 11:31:50;;;;;;;5.55;3.08;;;;;;;;;;5093405;28;20032;-65
2022/07/18 11:34:16;;;;;;;4.15;2.42;;;;;;;;;;5093613;28;20056;-65
2022/07/18 11:36:45;;;;;;;5.32;2.70;;;;;;;;;;5093606;28;20048;-65
2022/07/18 11:39:10;;;;;;;3.90;2.65;;;;;;;;;;5093685;28;20066;-66
2022/07/18 11:41:40;;;;;;;4.30;2.70;;;;;;;;;;5093360;28;20426;-65
2022/07/18 11:44:16;;;;;;;8.80;2.90;;;;;;;;;;5093118;28;20020;-65
2022/07/18 11:46:41;;;;;;;6.25;2.88;;;;;;;;;;5092856;28;20437;-65
2022/07/18 11:49:07;;;;;;;4.32;2.83;;;;;;;;;;5093292;28;20028;-65
2022/07/18 11:51:37;;;;;;;6.90;2.80;;;;;;;;;;5093170;28;20461;-65
2022/07/18 11:54:03;;;;;;;5.45;2.80;;;;;;;;;;5093145;28;20024;-66
2022/07/18 11:56:29;;;;;;;4.88;2.50;;;;;;;;;;5093379;28;20020;-65
2022/07/18 11:58:56;;;;;;;5.03;2.83;;;;;;;;;;5093180;28;20457;-65
2022/07/18 12:01:22;;;;;;;10.23;3.08;;;;;;;;;;5092959;28;20020;-66
2022/07/18 12:03:49;;;;;;;6.28;2.90;;;;;;;;;;5092979;28;20020;-65
2022/07/18 12:06:21;;;;;;;5.75;2.45;;;;;;;;;;5092791;28;20028;-65
2022/07/18 12:08:51;;;;;;;5.18;2.53;;;;;;;;;;5093046;28;20481;-65
2022/07/18 12:11:34;;;;;;;8.75;2.70;;;;;;;;;;5092986;28;20028;-66
2022/07/18 12:14:01;;;;;;;4.47;2.47;;;;;;;;;;5092645;28;20020;-66
2022/07/18 12:16:34;;;;;;;4.05;2.38;;;;;;;;;;5092787;28;20381;-65
2022/07/18 12:19:12;;;;;;;5.38;2.85;;;;;;;;;;5092697;28;20085;-66
2022/07/18 12:22:04;;;;;;;4.75;2.70;;;;;;;;;;5082928;28;20189;-66
2022/07/18 12:24:47;;;;;;;5.65;3.00;;;;;;;;;;5072540;28;20029;-65
2022/07/18 12:27:20;;;;;;;6.55;3.03;;;;;;;;;;5072463;28;20440;-66
2022/07/18 12:30:06;;;;;;;3.83;2.55;;;;;;;;;;5072184;28;20036;-66
2022/07/18 12:32:45;;;;;;;5.30;2.75;;;;;;;;;;5072380;28;20478;-66
2022/07/18 12:35:29;;;;;;;4.80;2.60;;;;;;;;;;5072464;28;20078;-66
2022/07/18 12:38:09;;;;;;;5.90;2.70;;;;;;;;;;5072351;28;20033;-66
2022/07/18 12:40:46;;;;;;;5.38;2.80;;;;;;;;;;5072329;28;20033;-65
2022/07/18 12:43:13;;;;;;;7.45;2.95;;;;;;;;;;5072111;28;20036;-65
2022/07/18 12:45:39;;;;;;;4.00;2.70;;;;;;;;;;5071850;28;20052;-65
2022/07/18 12:48:08;;;;;;;7.50;3.08;;;;;;;;;;5072191;28;20021;-66
2022/07/18 12:50:34;;;;;;;3.93;2.60;;;;;;;;;;5072441;28;20025;-65
2022/07/18 12:53:00;;;;;;;5.53;2.58;;;;;;;;;;5072173;28;20031;-65
2022/07/18 12:55:27;;;;;;;4.60;2.53;;;;;;;;;;5072109;28;20099;-65
2022/07/18 12:57:52;;;;;;;10.88;3.60;;;;;;;;;;5071845;28;20028;-65
2022/07/18 13:00:18;;;;;;;7.60;3.00;;;;;;;;;;5074781;28;20036;-66
2022/07/18 13:02:44;;;;;;;4.95;2.90;;;;;;;;;;5076202;28;20134;-66
2022/07/18 13:05:10;;;;;;;7.47;3.08;;;;;;;;;;5076247;28;20029;-66
2022/07/18 13:07:36;;;;;;;5.40;3.00;;;;;;;;;;5074719;28;20055;-66
2022/07/18 13:10:01;;;;;;;7.80;3.17;;;;;;;;;;5074614;28;20058;-65
2022/07/18 13:12:27;;;;;;;7.82;3.33;;;;;;;;;;5071953;28;20033;-65
2022/07/18 13:14:52;;;;;;;7.30;3.30;;;;;;;;;;5072075;28;20037;-66
2022/07/18 13:17:18;;;;;;;5.50;3.03;;;;;;;;;;5072015;28;20043;-66
2022/07/18 13:19:44;;;;;;;5.00;3.13;;;;;;;;;;5071995;28;20527;-66
2022/07/18 13:22:10;;;;;;;6.78;3.70;;;;;;;;;;5071704;28;20148;-66
2022/07/18 13:24:37;;;;;;;11.32;3.85;;;;;;;;;;5071922;28;20103;-66
2022/07/18 13:27:04;;;;;;;7.88;3.20;;;;;;;;;;5070910;28;20056;-66
2022/07/18 13:29:29;;;;;;;4.78;3.15;;;;;;;;;;5071656;28;20036;-66
2022/07/18 13:31:55;;;;;;;7.50;3.40;;;;;;;;;;5071918;28;20017;-66
2022/07/18 13:34:21;;;;;;;8.35;3.30;;;;;;;;;;5071441;28;20024;-65
2022/07/18 13:36:51;;;;;;;8.13;3.25;;;;;;;;;;5071710;28;20029;-66
2022/07/18 13:39:18;;;;;;;5.00;3.15;;;;;;;;;;5071729;28;20029;-65
2022/07/18 13:41:44;;;;;;;6.85;2.97;;;;;;;;;;5071456;28;20052;-66
2022/07/18 13:44:10;;;;;;;4.55;2.97;;;;;;;;;;5070935;28;20024;-66
2022/07/18 13:46:36;;;;;;;5.90;3.13;;;;;;;;;;5070835;28;20090;-66
2022/07/18 13:49:01;;;;;;;6.03;3.40;;;;;;;;;;5071366;28;20021;-66
2022/07/18 13:51:27;;;;;;;7.43;3.15;;;;;;;;;;5070975;28;20036;-65
2022/07/18 13:53:52;;;;;;;7.03;3.08;;;;;;;;;;5071403;28;20028;-66
2022/07/18 13:56:18;;;;;;;4.72;3.13;;;;;;;;;;5070422;28;20103;-66
2022/07/18 13:58:43;;;;;;;4.35;3.10;;;;;;;;;;5071211;28;20473;-66
2022/07/18 14:01:11;;;;;;;6.82;3.30;;;;;;;;;;5071164;28;20075;-65
2022/07/18 14:03:37;;;;;;;6.07;2.90;;;;;;;;;;5053246;28;20033;-66
2022/07/18 14:06:03;;;;;;;7.38;2.85;;;;;;;;;;5071033;28;20504;-65
2022/07/18 14:08:28;;;;;;;6.90;3.03;;;;;;;;;;5071176;28;20038;-66
2022/07/18 14:10:54;;;;;;;5.00;3.28;;;;;;;;;;5069491;28;20099;-66
2022/07/18 14:13:19;;;;;;;6.13;3.13;;;;;;;;;;5070436;28;20059;-66
2022/07/18 14:15:45;;;;;;;5.22;3.03;;;;;;;;;;5070385;28;20027;-66
2022/07/18 14:18:10;;;;;;;11.43;3.70;;;;;;;;;;5070911;28;20047;-65
2022/07/18 14:20:36;;;;;;;5.80;3.20;;;;;;;;;;5070797;28;20032;-66
2022/07/18 14:23:01;;;;;;;6.90;3.30;;;;;;;;;;5070767;28;20024;-65
2022/07/18 14:25:27;;;;;;;5.32;2.78;;;;;;;;;;5070304;28;20048;-66
2022/07/18 14:27:52;;;;;;;7.20;3.13;;;;;;;;;;5070666;28;20398;-66
2022/07/18 14:30:19;;;;;;;7.43;3.30;;;;;;;;;;5070710;28;20056;-66
2022/07/18 14:32:45;;;;;;;6.38;3.35;;;;;;;;;;5070484;28;20124;-66
2022/07/18 14:35:10;;;;;;;4.53;3.08;;;;;;;;;;5070475;28;20401;-65
2022/07/18 14:37:36;;;;;;;5.45;2.97;;;;;;;;;;5070307;28;20028;-66
2022/07/18 14:40:04;;;;;;;5.38;3.10;;;;;;;;;;5070293;28;20039;-66
2022/07/18 14:42:30;;;;;;;7.20;2.80;;;;;;;;;;5073283;28;20025;-66
2022/07/18 14:44:55;;;;;;;6.80;2.92;;;;;;;;;;5073977;28;20041;-65
2022/07/18 14:47:21;;;;;;;6.68;3.30;;;;;;;;;;5074296;28;20035;-66
2022/07/18 14:49:46;;;;;;;8.70;3.20;;;;;;;;;;5074267;28;20115;-66
2022/07/18 14:52:12;;;;;;;5.75;3.10;;;;;;;;;;5056191;28;20378;-66